Terminal Aerodrome Forecast
Issued by NWS

Home | Current Version | Previous Version | Text Only | Print | Product List | Glossary On
Versions: 1 2 3 4 5 6 7 8 9 10 11 12 13 14 15 16 17 18 19 20 21 22 23 24 25 26 27 28 29 30 31 32 33 34 35 36 37
000
FTUS44 KFWD 282204 AAB
TAFGKY
TAF AMD
KGKY 282204Z 2822/0118 03005KT 6SM BR SCT008 OVC012
      TEMPO 2822/2823 2SM -FZDZ BR BKN008
     FM010300 06005KT 2SM -DZ BR OVC003
      TEMPO 0111/0114 3SM BR SCT003 OVC006=

USA.gov is the U.S. government's official web portal to all federal, state and local government web resources and services.